createdAt,value
2023-01-05T00:00:27.466Z,14.01
2023-01-05T00:01:28.982Z,13.98
2023-01-05T00:02:30.626Z,14.00
2023-01-05T00:03:32.188Z,13.94
2023-01-05T00:04:33.678Z,13.90
2023-01-05T00:05:35.235Z,13.86
2023-01-05T00:06:37.409Z,13.83
2023-01-05T00:07:39.003Z,13.90
2023-01-05T00:08:40.528Z,13.89
2023-01-05T00:09:41.981Z,13.88
2023-01-05T00:11:01.980Z,13.88
2023-01-05T00:12:22.268Z,13.90
2023-01-05T00:13:42.211Z,13.94
2023-01-05T00:15:02.144Z,13.91
2023-01-05T00:16:22.330Z,13.93
2023-01-05T00:17:42.661Z,13.95
2023-01-05T00:19:02.550Z,13.91
2023-01-05T00:20:22.915Z,13.89
2023-01-05T00:21:43.159Z,13.91
2023-01-05T00:22:51.359Z,13.89
2023-01-05T00:23:52.799Z,13.93
2023-01-05T00:24:54.230Z,13.96
2023-01-05T00:25:55.716Z,13.94
2023-01-05T00:26:57.310Z,13.94
2023-01-05T00:27:59.067Z,13.93
2023-01-05T00:29:00.615Z,13.97
2023-01-05T00:30:03.752Z,13.97
2023-01-05T00:31:05.279Z,13.99
2023-01-05T00:32:06.826Z,13.96
2023-01-05T00:33:09.216Z,13.96
2023-01-05T00:34:10.718Z,13.98
2023-01-05T00:35:12.356Z,13.99
2023-01-05T00:36:13.860Z,14.01
2023-01-05T00:37:15.412Z,14.02
2023-01-05T00:38:16.973Z,14.04
2023-01-05T00:39:18.420Z,14.03
2023-01-05T00:40:20.347Z,14.04
2023-01-05T00:41:21.894Z,14.06
2023-01-05T00:42:23.401Z,14.02
2023-01-05T00:43:24.969Z,14.03
2023-01-05T00:44:26.426Z,14.07
2023-01-05T00:45:28.789Z,14.08
2023-01-05T00:46:30.428Z,14.11
2023-01-05T00:47:31.889Z,14.12
2023-01-05T00:48:33.505Z,14.08
2023-01-05T00:49:34.976Z,14.07
2023-01-05T00:50:36.479Z,14.10
2023-01-05T00:51:38.023Z,14.16
2023-01-05T00:52:39.517Z,14.19
2023-01-05T00:53:41.079Z,14.24
2023-01-05T00:54:42.724Z,14.27
2023-01-05T00:55:44.348Z,14.25
2023-01-05T00:56:46.759Z,14.20
2023-01-05T00:57:48.723Z,14.23
2023-01-05T00:58:52.832Z,14.25
2023-01-05T00:59:54.675Z,14.27
2023-01-05T01:00:56.136Z,14.31
2023-01-05T01:01:57.925Z,14.30
2023-01-05T01:02:59.471Z,14.32
2023-01-05T01:04:01.075Z,14.34
2023-01-05T01:05:02.561Z,14.34
2023-01-05T01:06:05.308Z,14.31
2023-01-05T01:07:06.831Z,14.30
2023-01-05T01:08:08.339Z,14.30
2023-01-05T01:09:10.038Z,14.32
2023-01-05T01:10:12.823Z,14.37
2023-01-05T01:11:16.598Z,14.38
2023-01-05T01:12:18.059Z,14.39
2023-01-05T01:13:19.525Z,14.42
2023-01-05T01:14:21.132Z,14.44
2023-01-05T01:15:24.133Z,14.45
2023-01-05T01:16:25.656Z,14.40
2023-01-05T01:17:27.176Z,14.42
2023-01-05T01:18:28.709Z,14.44
2023-01-05T01:19:30.268Z,14.43
2023-01-05T01:20:31.767Z,14.42
2023-01-05T01:21:33.279Z,14.37
2023-01-05T01:22:34.897Z,14.37
2023-01-05T01:23:39.497Z,14.33
2023-01-05T01:24:41.011Z,14.30
2023-01-05T01:25:42.505Z,14.33
2023-01-05T01:26:44.054Z,14.38
2023-01-05T01:27:45.525Z,14.41
2023-01-05T01:28:47.603Z,14.43
2023-01-05T01:29:49.088Z,14.44
2023-01-05T01:30:50.819Z,14.47
2023-01-05T01:31:52.752Z,14.48
2023-01-05T01:32:54.314Z,14.46
2023-01-05T01:33:55.838Z,14.46
2023-01-05T01:34:57.373Z,14.45
2023-01-05T01:35:59.104Z,14.49
2023-01-05T01:38:07.025Z,14.49
2023-01-05T01:39:08.670Z,14.52
2023-01-05T01:40:13.294Z,14.55
2023-01-05T01:41:14.935Z,14.53
2023-01-05T01:42:16.791Z,14.51
2023-01-05T01:43:20.816Z,14.52
2023-01-05T01:44:40.984Z,14.53
2023-01-05T01:45:42.664Z,14.53
2023-01-05T01:46:44.236Z,14.53
2023-01-05T01:47:47.660Z,14.52
2023-01-05T01:49:02.230Z,14.56
2023-01-05T01:50:05.416Z,14.59
2023-01-05T01:51:08.402Z,14.60
2023-01-05T01:52:10.621Z,14.61
2023-01-05T01:53:14.109Z,14.63
2023-01-05T01:54:15.983Z,14.64
2023-01-05T01:55:17.513Z,14.63
2023-01-05T01:56:19.346Z,14.60
2023-01-05T01:57:20.858Z,14.58
2023-01-05T01:58:23.296Z,14.60
2023-01-05T01:59:24.827Z,14.56
2023-01-05T02:00:26.472Z,14.57
2023-01-05T02:01:28.218Z,14.60
2023-01-05T02:02:30.228Z,14.67
2023-01-05T02:03:31.853Z,14.69
2023-01-05T02:04:34.257Z,14.73
2023-01-05T02:05:38.049Z,14.72
2023-01-05T02:06:39.603Z,14.74
2023-01-05T02:07:43.589Z,14.77
2023-01-05T02:08:47.110Z,14.85
2023-01-05T02:09:49.047Z,14.89
2023-01-05T02:10:56.179Z,14.92
2023-01-05T02:12:33.178Z,14.95
2023-01-05T02:13:37.380Z,15.01
2023-01-05T02:14:42.314Z,15.02
2023-01-05T02:15:52.855Z,15.06
2023-01-05T02:17:03.475Z,15.09
2023-01-05T02:18:11.071Z,15.14
2023-01-05T02:19:15.346Z,15.17
2023-01-05T02:20:22.253Z,15.17
2023-01-05T02:21:47.309Z,15.18
2023-01-05T02:22:54.675Z,15.20
2023-01-05T02:24:11.398Z,15.21
2023-01-05T02:25:21.447Z,15.26
2023-01-05T02:26:28.741Z,15.27
2023-01-05T02:27:30.255Z,15.29
2023-01-05T02:28:50.600Z,15.32
2023-01-05T02:29:52.835Z,15.35
2023-01-05T02:30:59.721Z,15.35
2023-01-05T02:32:15.579Z,15.33
2023-01-05T02:33:25.891Z,15.35
2023-01-05T02:34:28.436Z,15.37
2023-01-05T02:35:35.789Z,15.37
2023-01-05T02:36:37.349Z,15.36
2023-01-05T02:37:41.378Z,15.37
2023-01-05T02:38:47.022Z,15.38
2023-01-05T02:39:51.525Z,15.39
2023-01-05T02:40:54.710Z,15.40
2023-01-05T02:42:08.773Z,15.42
2023-01-05T02:43:10.672Z,15.42
2023-01-05T02:44:12.361Z,15.39
2023-01-05T02:45:14.053Z,15.39
2023-01-05T02:46:15.578Z,15.41
2023-01-05T02:47:27.809Z,15.42
2023-01-05T02:48:30.475Z,15.40
2023-01-05T02:49:32.759Z,15.40
2023-01-05T02:50:40.366Z,15.38
2023-01-05T02:51:46.801Z,15.36
2023-01-05T02:52:51.042Z,15.35
2023-01-05T02:53:58.471Z,15.35
2023-01-05T02:55:01.414Z,15.32
2023-01-05T02:56:02.918Z,15.34
2023-01-05T02:57:16.046Z,15.35
2023-01-05T02:58:19.307Z,15.36
2023-01-05T02:59:36.604Z,15.37
2023-01-05T03:00:42.148Z,15.40
2023-01-05T03:01:45.849Z,15.42
2023-01-05T03:02:49.572Z,15.41
2023-01-05T03:04:01.633Z,15.41
2023-01-05T03:05:10.270Z,15.38
2023-01-05T03:06:20.071Z,15.38
2023-01-05T03:07:24.216Z,15.34
2023-01-05T03:08:32.452Z,15.30
2023-01-05T03:09:37.014Z,15.28
2023-01-05T03:11:03.307Z,15.30
2023-01-05T03:12:29.561Z,15.31
2023-01-05T03:13:43.128Z,15.25
2023-01-05T03:14:50.164Z,15.23
2023-01-05T03:15:51.801Z,15.22
2023-01-05T03:16:53.365Z,15.23
2023-01-05T03:17:55.345Z,15.26
2023-01-05T03:19:15.452Z,15.25
2023-01-05T03:20:18.215Z,15.27
2023-01-05T03:21:19.689Z,15.26
2023-01-05T03:22:42.901Z,15.29
2023-01-05T03:24:03.476Z,15.30
2023-01-05T03:25:24.724Z,15.28
2023-01-05T03:26:45.956Z,15.26
2023-01-05T03:28:06.281Z,15.26
2023-01-05T03:29:26.403Z,15.28
2023-01-05T03:30:51.160Z,15.26
2023-01-05T03:32:14.931Z,15.25
2023-01-05T03:33:41.888Z,15.25
2023-01-05T03:35:05.854Z,15.22
2023-01-05T03:36:07.968Z,15.20
2023-01-05T03:37:10.609Z,15.20
2023-01-05T03:38:18.590Z,15.20
2023-01-05T03:39:21.359Z,15.20
2023-01-05T03:40:24.775Z,15.20
2023-01-05T03:41:28.065Z,15.20
2023-01-05T03:42:31.869Z,15.19
2023-01-05T03:43:36.553Z,15.18
2023-01-05T03:44:40.258Z,15.18
2023-01-05T03:45:43.588Z,15.16
2023-01-05T03:46:51.107Z,15.15
2023-01-05T03:47:52.586Z,15.13
2023-01-05T03:48:59.416Z,15.12
2023-01-05T03:50:01.697Z,15.08
2023-01-05T03:51:05.923Z,15.12
2023-01-05T03:52:09.155Z,15.13
2023-01-05T03:53:11.727Z,15.14
2023-01-05T03:54:13.775Z,15.13
2023-01-05T03:55:16.643Z,15.13
2023-01-05T03:56:18.663Z,15.13
2023-01-05T03:57:20.187Z,15.13
2023-01-05T03:58:21.915Z,15.10
2023-01-05T03:59:24.791Z,15.12
2023-01-05T04:00:26.683Z,15.13
2023-01-05T04:01:36.001Z,15.13
2023-01-05T04:02:38.383Z,15.12
2023-01-05T04:03:40.875Z,15.11
2023-01-05T04:04:43.023Z,15.11
2023-01-05T04:05:44.889Z,15.11
2023-01-05T04:06:46.858Z,15.09
2023-01-05T04:07:50.101Z,15.08
2023-01-05T04:08:52.108Z,15.05
2023-01-05T04:09:54.350Z,15.01
2023-01-05T04:10:56.551Z,15.00
2023-01-05T04:11:58.246Z,15.01
2023-01-05T04:13:00.097Z,15.01
2023-01-05T04:14:02.219Z,14.96
2023-01-05T04:15:04.781Z,14.94
2023-01-05T04:16:07.929Z,14.94
2023-01-05T04:17:11.181Z,14.93
2023-01-05T04:18:13.636Z,14.93
2023-01-05T04:19:15.156Z,14.93
2023-01-05T04:20:17.613Z,14.91
2023-01-05T04:21:19.381Z,14.89
2023-01-05T04:22:26.985Z,14.83
2023-01-05T04:23:29.372Z,14.83
2023-01-05T04:24:31.072Z,14.85
2023-01-05T04:25:34.797Z,14.83
2023-01-05T04:26:46.220Z,14.81
2023-01-05T04:27:47.767Z,14.80
2023-01-05T04:28:50.401Z,14.81
2023-01-05T04:29:54.528Z,14.82
2023-01-05T04:30:56.204Z,14.81
2023-01-05T04:31:59.134Z,14.80
2023-01-05T04:33:01.479Z,14.77
2023-01-05T04:34:03.998Z,14.78
2023-01-05T04:35:11.030Z,14.74
2023-01-05T04:36:14.748Z,14.77
2023-01-05T04:37:16.244Z,14.75
2023-01-05T04:38:17.769Z,14.76
2023-01-05T04:39:19.345Z,14.77
2023-01-05T04:40:20.863Z,14.77
2023-01-05T04:41:26.667Z,14.77
2023-01-05T04:42:28.812Z,14.77
2023-01-05T04:43:30.420Z,14.77
2023-01-05T04:44:34.662Z,14.77
2023-01-05T04:45:38.893Z,14.77
2023-01-05T04:46:41.937Z,14.77
2023-01-05T04:47:45.730Z,14.77
2023-01-05T04:48:51.354Z,14.76
2023-01-05T04:49:55.053Z,14.74
2023-01-05T04:50:56.895Z,14.73
2023-01-05T04:52:04.571Z,14.69
2023-01-05T04:53:08.360Z,14.68
2023-01-05T04:54:12.776Z,14.67
2023-01-05T04:55:16.220Z,14.59
2023-01-05T04:56:18.875Z,14.57
2023-01-05T04:57:22.419Z,14.57
2023-01-05T04:58:24.088Z,14.57
2023-01-05T04:59:28.097Z,14.56
2023-01-05T05:00:32.931Z,14.52
2023-01-05T05:01:34.979Z,14.52
2023-01-05T05:02:36.960Z,14.52
2023-01-05T05:03:38.525Z,14.49
2023-01-05T05:04:43.725Z,14.49
2023-01-05T05:05:45.729Z,14.50
2023-01-05T05:06:47.978Z,14.50
2023-01-05T05:07:50.283Z,14.49
2023-01-05T05:08:52.463Z,14.47
2023-01-05T05:09:54.016Z,14.49
2023-01-05T05:10:56.023Z,14.47
2023-01-05T05:11:58.017Z,14.43
2023-01-05T05:12:59.775Z,14.43
2023-01-05T05:14:01.235Z,14.43
2023-01-05T05:15:03.643Z,14.42
2023-01-05T05:16:05.551Z,14.43
2023-01-05T05:17:08.370Z,14.43
2023-01-05T05:18:10.117Z,14.45
2023-01-05T05:19:13.754Z,14.43
2023-01-05T05:20:15.470Z,14.44
2023-01-05T05:21:17.882Z,14.45
2023-01-05T05:22:19.409Z,14.46
2023-01-05T05:23:21.758Z,14.44
2023-01-05T05:24:23.334Z,14.39
2023-01-05T05:25:25.548Z,14.38
2023-01-05T05:26:27.062Z,14.37
2023-01-05T05:27:29.336Z,14.32
2023-01-05T05:28:30.796Z,14.31
2023-01-05T05:29:32.263Z,14.31
2023-01-05T05:30:33.802Z,14.31
2023-01-05T05:31:36.056Z,14.31
2023-01-05T05:32:42.518Z,14.31
2023-01-05T05:33:45.775Z,14.33
2023-01-05T05:34:47.250Z,14.32
2023-01-05T05:35:48.743Z,14.33
2023-01-05T05:36:50.357Z,14.35
2023-01-05T05:37:56.346Z,14.33
2023-01-05T05:38:58.864Z,14.33
2023-01-05T05:40:00.432Z,14.30
2023-01-05T05:41:01.904Z,14.27
2023-01-05T05:42:03.440Z,14.25
2023-01-05T05:43:05.005Z,14.25
2023-01-05T05:44:06.753Z,14.23
2023-01-05T05:45:08.619Z,14.21
2023-01-05T05:46:10.130Z,14.22
2023-01-05T05:47:11.739Z,14.24
2023-01-05T05:48:13.211Z,14.23
2023-01-05T05:49:14.778Z,14.18
2023-01-05T05:50:16.296Z,14.20
2023-01-05T05:51:21.408Z,14.21
2023-01-05T05:52:22.939Z,14.23
2023-01-05T05:53:24.387Z,14.19
2023-01-05T05:54:25.911Z,14.04
2023-01-05T05:55:27.442Z,14.19
2023-01-05T05:56:29.591Z,14.22
2023-01-05T05:57:31.142Z,14.24
2023-01-05T05:58:32.607Z,14.22
2023-01-05T05:59:34.102Z,14.23
2023-01-05T06:00:37.475Z,14.21
2023-01-05T06:01:39.053Z,14.23
2023-01-05T06:02:40.925Z,14.22
2023-01-05T06:03:42.564Z,14.20
2023-01-05T06:04:44.055Z,14.21
2023-01-05T06:05:45.681Z,14.23
2023-01-05T06:06:47.172Z,14.25
2023-01-05T06:07:48.699Z,14.27
2023-01-05T06:08:50.159Z,14.27
2023-01-05T06:09:51.611Z,14.26
2023-01-05T06:10:53.160Z,14.23
2023-01-05T06:11:54.711Z,14.24
2023-01-05T06:12:56.434Z,14.21
2023-01-05T06:13:58.008Z,14.20
2023-01-05T06:14:59.497Z,14.22
2023-01-05T06:16:00.998Z,14.21
2023-01-05T06:17:02.456Z,14.19
2023-01-05T06:18:04.128Z,14.20
2023-01-05T06:19:05.660Z,14.23
2023-01-05T06:20:08.389Z,14.24
2023-01-05T06:21:09.878Z,14.23
2023-01-05T06:22:11.366Z,14.24
2023-01-05T06:23:12.924Z,14.22
2023-01-05T06:24:15.203Z,14.19
2023-01-05T06:25:16.703Z,14.08
2023-01-05T06:26:18.231Z,14.09
2023-01-05T06:27:19.762Z,14.10
2023-01-05T06:28:21.206Z,14.08
2023-01-05T06:29:22.697Z,14.05
2023-01-05T06:30:24.451Z,14.07
2023-01-05T06:31:25.993Z,14.11
2023-01-05T06:32:27.553Z,14.11
2023-01-05T06:33:29.013Z,14.12
2023-01-05T06:34:30.600Z,14.16
2023-01-05T06:35:32.040Z,14.20
2023-01-05T06:36:33.494Z,14.22
2023-01-05T06:37:35.149Z,14.25
2023-01-05T06:38:37.066Z,14.23
2023-01-05T06:39:38.560Z,14.24
2023-01-05T06:40:41.220Z,14.26
2023-01-05T06:41:42.669Z,14.29
2023-01-05T06:42:44.243Z,14.31
2023-01-05T06:43:45.757Z,14.33
2023-01-05T06:44:47.223Z,14.35
2023-01-05T06:45:48.795Z,14.35
2023-01-05T06:46:50.409Z,14.34
2023-01-05T06:47:51.879Z,14.34
2023-01-05T06:48:53.403Z,14.32
2023-01-05T06:49:55.078Z,14.28
2023-01-05T06:50:56.568Z,14.24
2023-01-05T06:51:58.010Z,14.26
2023-01-05T06:52:59.613Z,14.25
2023-01-05T06:54:01.159Z,14.27
2023-01-05T06:55:03.468Z,14.30
2023-01-05T06:56:05.138Z,14.30
2023-01-05T06:57:06.870Z,14.32
2023-01-05T06:58:08.409Z,14.34
2023-01-05T06:59:10.991Z,14.34
2023-01-05T07:00:12.728Z,14.35
2023-01-05T07:01:14.296Z,14.37
2023-01-05T07:02:16.191Z,14.34
2023-01-05T07:03:17.675Z,14.32
2023-01-05T07:04:19.226Z,14.33
2023-01-05T07:05:20.853Z,14.34
2023-01-05T07:06:22.324Z,14.33
2023-01-05T07:07:23.783Z,14.34
2023-01-05T07:08:25.278Z,14.26
2023-01-05T07:09:26.771Z,14.28
2023-01-05T07:10:28.431Z,14.30
2023-01-05T07:11:30.074Z,14.33
2023-01-05T07:12:31.528Z,14.31
2023-01-05T07:13:32.976Z,14.32
2023-01-05T07:14:34.452Z,14.33
2023-01-05T07:15:35.935Z,14.34
2023-01-05T07:16:37.494Z,14.34
2023-01-05T07:17:39.054Z,14.34
2023-01-05T07:18:40.527Z,14.32
2023-01-05T07:19:41.994Z,14.34
2023-01-05T07:20:43.428Z,14.33
2023-01-05T07:21:44.907Z,14.28
2023-01-05T07:22:46.549Z,14.23
2023-01-05T07:23:48.044Z,14.26
2023-01-05T07:24:49.643Z,14.25
2023-01-05T07:25:51.080Z,14.27
2023-01-05T07:26:52.609Z,14.24
2023-01-05T07:27:54.095Z,14.25
2023-01-05T07:28:55.646Z,14.26
2023-01-05T07:29:57.169Z,14.28
2023-01-05T07:30:58.658Z,14.27
2023-01-05T07:32:00.203Z,14.28
2023-01-05T07:33:01.907Z,14.29
2023-01-05T07:34:03.388Z,14.31
2023-01-05T07:35:05.788Z,14.29
2023-01-05T07:36:07.445Z,14.30
2023-01-05T07:37:09.011Z,14.26
2023-01-05T07:38:10.568Z,14.28
2023-01-05T07:39:12.088Z,14.29
2023-01-05T07:40:13.628Z,14.30
2023-01-05T07:41:15.853Z,14.30
2023-01-05T07:42:17.293Z,14.30
2023-01-05T07:43:18.780Z,14.31
2023-01-05T07:44:20.287Z,14.32
2023-01-05T07:45:21.890Z,14.32
2023-01-05T07:46:23.625Z,14.34
2023-01-05T07:47:25.189Z,14.33
2023-01-05T07:48:26.655Z,14.34
2023-01-05T07:49:29.454Z,14.34
2023-01-05T07:50:32.221Z,14.33
2023-01-05T07:51:33.773Z,14.33
2023-01-05T07:52:35.245Z,14.33
2023-01-05T07:53:43.848Z,14.19
2023-01-05T07:54:46.282Z,14.17
2023-01-05T07:55:55.006Z,14.18
2023-01-05T07:56:56.598Z,14.19
2023-01-05T07:57:58.061Z,14.19
2023-01-05T07:58:59.554Z,14.21
2023-01-05T08:00:01.162Z,14.22
2023-01-05T08:01:06.243Z,14.22
2023-01-05T08:02:08.847Z,14.21
2023-01-05T08:03:10.387Z,14.21
2023-01-05T08:04:11.956Z,14.13
2023-01-05T08:05:13.538Z,14.09
2023-01-05T08:06:15.518Z,14.02
2023-01-05T08:07:16.978Z,13.92
2023-01-05T08:08:24.143Z,13.94
2023-01-05T08:09:44.841Z,13.96
2023-01-05T08:10:46.459Z,13.99
2023-01-05T08:11:47.933Z,13.96
2023-01-05T08:13:08.227Z,13.95
2023-01-05T08:14:09.706Z,13.99
2023-01-05T08:15:11.175Z,14.00
2023-01-05T08:16:12.717Z,14.03
2023-01-05T08:17:14.257Z,14.01
2023-01-05T08:18:15.778Z,13.99
2023-01-05T08:19:17.340Z,14.01
2023-01-05T08:20:18.802Z,14.05
2023-01-05T08:21:20.268Z,14.06
2023-01-05T08:22:21.877Z,14.06
2023-01-05T08:23:25.735Z,14.08
2023-01-05T08:24:28.053Z,14.08
2023-01-05T08:25:29.537Z,14.10
2023-01-05T08:26:31.188Z,14.10
2023-01-05T08:27:33.685Z,14.08
2023-01-05T08:28:35.939Z,14.09
2023-01-05T08:29:37.512Z,14.06
2023-01-05T08:30:39.000Z,14.06
2023-01-05T08:31:40.601Z,14.10
2023-01-05T08:32:42.115Z,14.11
2023-01-05T08:33:43.841Z,14.12
2023-01-05T08:34:49.114Z,14.12
2023-01-05T08:35:53.462Z,14.12
2023-01-05T08:36:54.941Z,14.11
2023-01-05T08:37:56.446Z,14.10
2023-01-05T08:38:57.983Z,14.09
2023-01-05T08:40:00.357Z,14.09
2023-01-05T08:41:02.055Z,14.11
2023-01-05T08:42:03.576Z,14.11
2023-01-05T08:43:05.671Z,14.08
2023-01-05T08:44:08.237Z,14.08
2023-01-05T08:45:10.240Z,14.13
2023-01-05T08:46:11.834Z,14.16
2023-01-05T08:47:13.306Z,14.19
2023-01-05T08:48:14.821Z,14.20
2023-01-05T08:49:16.325Z,14.19
2023-01-05T08:50:17.796Z,14.20
2023-01-05T08:51:19.347Z,14.20
2023-01-05T08:52:20.832Z,14.20
2023-01-05T08:53:22.353Z,14.19
2023-01-05T08:54:23.858Z,14.21
2023-01-05T08:55:25.317Z,14.20
2023-01-05T08:56:27.238Z,14.23
2023-01-05T08:57:30.096Z,14.24
2023-01-05T08:58:31.536Z,14.26
2023-01-05T08:59:33.049Z,14.27
2023-01-05T09:00:34.750Z,14.27
2023-01-05T09:01:37.037Z,14.23
2023-01-05T09:02:38.925Z,14.25
2023-01-05T09:03:40.584Z,14.25
2023-01-05T09:04:42.099Z,14.28
2023-01-05T09:05:43.922Z,14.31
2023-01-05T09:06:45.379Z,14.30
2023-01-05T09:07:46.868Z,14.33
2023-01-05T09:08:48.640Z,14.30
2023-01-05T09:09:50.123Z,14.30
2023-01-05T09:10:51.614Z,14.30
2023-01-05T09:11:53.159Z,14.27
2023-01-05T09:12:54.670Z,14.30
2023-01-05T09:13:57.002Z,14.31
2023-01-05T09:14:58.541Z,14.35
2023-01-05T09:16:09.612Z,14.37
2023-01-05T09:17:11.213Z,14.40
2023-01-05T09:18:12.783Z,14.42
2023-01-05T09:19:14.258Z,14.42
2023-01-05T09:20:15.829Z,14.41
2023-01-05T09:21:17.310Z,14.36
2023-01-05T09:22:19.067Z,14.35
2023-01-05T09:23:20.776Z,14.36
2023-01-05T09:24:22.297Z,14.37
2023-01-05T09:25:23.860Z,14.36
2023-01-05T09:26:25.384Z,14.33
2023-01-05T09:27:26.917Z,14.35
2023-01-05T09:28:28.391Z,14.29
2023-01-05T09:29:29.835Z,14.27
2023-01-05T09:30:38.503Z,14.29
2023-01-05T09:31:43.677Z,14.32
2023-01-05T09:32:45.185Z,14.33
2023-01-05T09:33:46.827Z,14.29
2023-01-05T09:34:48.285Z,14.31
2023-01-05T09:35:53.380Z,14.32
2023-01-05T09:36:54.880Z,14.27
2023-01-05T09:37:56.348Z,14.27
2023-01-05T09:38:57.896Z,14.31
2023-01-05T09:39:59.465Z,14.26
2023-01-05T09:41:03.930Z,14.25
2023-01-05T09:42:06.228Z,14.23
2023-01-05T09:43:09.015Z,14.23
2023-01-05T09:44:10.463Z,14.26
2023-01-05T09:45:11.981Z,14.23
2023-01-05T09:46:14.430Z,14.23
2023-01-05T09:47:20.869Z,14.23
2023-01-05T09:48:22.342Z,14.24
2023-01-05T09:49:23.825Z,14.27
2023-01-05T09:50:25.821Z,14.31
2023-01-05T09:51:28.798Z,14.31
2023-01-05T09:52:35.995Z,14.33
2023-01-05T09:53:39.607Z,14.29
2023-01-05T09:54:41.113Z,14.30
2023-01-05T09:55:42.728Z,14.30
2023-01-05T09:58:16.805Z,14.28
2023-01-05T09:59:24.721Z,14.29
2023-01-05T10:00:26.248Z,14.33
2023-01-05T10:01:27.993Z,14.27
2023-01-05T10:02:58.864Z,14.28
2023-01-05T10:04:04.313Z,14.26
2023-01-05T10:05:06.933Z,14.31
2023-01-05T10:06:12.835Z,14.35
2023-01-05T10:07:19.679Z,14.39
2023-01-05T10:08:38.186Z,14.43
2023-01-05T10:09:39.660Z,14.44
2023-01-05T10:10:41.104Z,14.47
2023-01-05T10:12:12.229Z,14.50
2023-01-05T10:13:21.876Z,14.52
2023-01-05T10:14:24.827Z,14.53
2023-01-05T10:15:26.384Z,14.57
2023-01-05T10:16:29.781Z,14.55
2023-01-05T10:17:42.229Z,14.55
2023-01-05T10:18:44.943Z,14.57
2023-01-05T10:19:46.980Z,14.61
2023-01-05T10:21:07.275Z,14.66
2023-01-05T10:22:17.838Z,14.70
2023-01-05T10:23:19.448Z,14.72
2023-01-05T10:24:26.925Z,14.78
2023-01-05T10:25:39.288Z,14.82
2023-01-05T10:27:23.533Z,14.87
2023-01-05T10:28:28.890Z,14.85
2023-01-05T10:29:32.713Z,14.86
2023-01-05T10:30:41.140Z,14.89
2023-01-05T10:31:42.604Z,14.89
2023-01-05T10:32:49.967Z,14.90
2023-01-05T10:33:56.680Z,14.90
2023-01-05T10:36:00.187Z,14.89
2023-01-05T10:37:10.081Z,14.91
2023-01-05T10:38:13.548Z,14.91
2023-01-05T10:39:18.062Z,14.90
2023-01-05T10:40:22.913Z,14.90
2023-01-05T10:41:33.488Z,14.89
2023-01-05T10:42:34.987Z,14.88
2023-01-05T10:43:45.192Z,14.92
2023-01-05T10:44:46.679Z,14.94
2023-01-05T10:46:19.804Z,14.92
2023-01-05T10:47:09.982Z,14.90
2023-01-05T10:48:14.143Z,14.94
2023-01-05T10:49:19.895Z,14.98
2023-01-05T10:50:26.444Z,15.01
2023-01-05T10:51:30.285Z,15.02
2023-01-05T10:52:31.799Z,15.02
2023-01-05T10:53:37.024Z,15.04
2023-01-05T10:54:39.375Z,15.06
2023-01-05T10:55:45.337Z,15.06
2023-01-05T10:56:46.867Z,15.04
2023-01-05T10:57:48.330Z,15.01
2023-01-05T10:58:49.806Z,14.96
2023-01-05T11:00:00.167Z,14.98
2023-01-05T11:01:06.992Z,15.01
2023-01-05T11:02:11.590Z,15.07
2023-01-05T11:03:13.836Z,15.10
2023-01-05T11:05:38.310Z,15.12
2023-01-05T11:06:39.804Z,15.06
2023-01-05T11:07:54.237Z,15.08
2023-01-05T11:08:55.768Z,15.05
2023-01-05T11:09:57.223Z,15.09
2023-01-05T11:11:02.961Z,15.08
2023-01-05T11:12:05.450Z,15.08
2023-01-05T11:13:15.844Z,15.04
2023-01-05T11:14:17.355Z,15.01
2023-01-05T11:15:19.723Z,15.02
2023-01-05T11:16:22.235Z,15.04
2023-01-05T11:17:24.508Z,15.04
2023-01-05T11:18:26.905Z,15.06
2023-01-05T11:19:47.382Z,15.08
2023-01-05T11:21:09.268Z,15.11
2023-01-05T11:22:29.350Z,15.11
2023-01-05T11:23:40.978Z,15.13
2023-01-05T11:24:42.467Z,15.14
2023-01-05T11:25:44.035Z,15.15
2023-01-05T11:26:48.857Z,15.14
2023-01-05T11:28:09.296Z,15.12
2023-01-05T11:29:13.245Z,15.11
2023-01-05T11:30:14.815Z,15.11
2023-01-05T11:31:16.530Z,15.14
2023-01-05T11:32:18.023Z,15.14
2023-01-05T11:33:25.454Z,15.16
2023-01-05T11:34:36.677Z,15.17
2023-01-05T11:35:38.207Z,15.18
2023-01-05T11:36:39.745Z,15.19
2023-01-05T11:37:43.453Z,15.20
2023-01-05T11:38:44.958Z,15.18
2023-01-05T11:39:46.393Z,15.03
2023-01-05T11:40:47.921Z,15.19
2023-01-05T11:41:49.801Z,15.16
2023-01-05T11:42:51.327Z,15.20
2023-01-05T11:43:52.902Z,15.21
2023-01-05T11:44:55.626Z,15.23
2023-01-05T11:45:58.359Z,15.14
2023-01-05T11:46:59.866Z,15.16
2023-01-05T11:48:03.385Z,15.20
2023-01-05T11:49:04.882Z,15.20
2023-01-05T11:50:09.869Z,15.21
2023-01-05T11:51:20.677Z,15.18
2023-01-05T11:52:26.948Z,15.19
2023-01-05T11:53:34.454Z,15.21
2023-01-05T11:54:36.687Z,15.25
2023-01-05T11:55:39.852Z,15.26
2023-01-05T11:56:41.416Z,15.28
2023-01-05T11:57:42.885Z,15.27
2023-01-05T11:58:45.388Z,15.29
2023-01-05T11:59:47.119Z,15.30
2023-01-05T12:01:07.603Z,15.32
2023-01-05T12:02:32.657Z,15.35
2023-01-05T12:03:43.711Z,15.36
2023-01-05T12:04:51.679Z,15.38
2023-01-05T12:05:56.975Z,15.36
2023-01-05T12:06:59.231Z,15.32
2023-01-05T12:08:09.227Z,15.27
2023-01-05T12:09:10.866Z,15.29
2023-01-05T12:10:12.428Z,15.31
2023-01-05T12:11:19.034Z,15.31
2023-01-05T12:12:48.073Z,15.33
2023-01-05T12:14:01.624Z,15.35
2023-01-05T12:15:06.055Z,15.24
2023-01-05T12:16:19.900Z,15.25
2023-01-05T12:17:43.898Z,15.25
2023-01-05T12:18:51.552Z,15.28
2023-01-05T12:20:22.333Z,15.30
2023-01-05T12:21:37.661Z,15.32
2023-01-05T12:22:45.217Z,15.34
2023-01-05T12:23:55.834Z,15.37
2023-01-05T12:25:15.439Z,15.40
2023-01-05T12:26:19.968Z,15.38
2023-01-05T12:27:40.206Z,15.38
2023-01-05T12:29:50.880Z,15.41
2023-01-05T12:32:19.728Z,15.44
2023-01-05T12:34:45.257Z,15.37
2023-01-05T12:35:52.767Z,15.36
2023-01-05T12:36:57.162Z,15.35
2023-01-05T12:38:08.569Z,15.35
2023-01-05T12:39:18.767Z,15.35
2023-01-05T12:40:37.102Z,15.32
2023-01-05T12:41:51.948Z,15.33
2023-01-05T12:43:32.317Z,15.31
2023-01-05T12:44:38.248Z,15.30
2023-01-05T12:45:55.443Z,15.26
2023-01-05T12:47:09.073Z,15.28
2023-01-05T12:48:10.634Z,15.26
2023-01-05T12:49:13.426Z,15.23
2023-01-05T12:50:15.257Z,15.26
2023-01-05T12:51:16.866Z,15.24
2023-01-05T12:52:26.016Z,15.24
2023-01-05T12:53:36.441Z,15.27
2023-01-05T12:54:47.161Z,15.30
2023-01-05T12:55:50.257Z,15.31
2023-01-05T12:56:53.641Z,15.32
2023-01-05T12:57:59.757Z,15.34
2023-01-05T12:59:04.249Z,15.33
2023-01-05T13:00:13.283Z,15.36
2023-01-05T13:01:17.450Z,15.37
2023-01-05T13:02:22.057Z,15.39
2023-01-05T13:03:25.374Z,15.40
2023-01-05T13:04:36.391Z,15.38
2023-01-05T13:06:03.908Z,15.38
2023-01-05T13:07:09.880Z,15.38
2023-01-05T13:08:17.473Z,15.39
2023-01-05T13:09:20.652Z,15.41
2023-01-05T13:10:34.392Z,15.42
2023-01-05T13:11:40.670Z,15.42
2023-01-05T13:12:42.192Z,15.42
2023-01-05T13:13:54.274Z,15.42
2023-01-05T13:15:01.809Z,15.43
2023-01-05T13:16:22.366Z,15.40
2023-01-05T13:17:37.122Z,15.42
2023-01-05T13:18:39.836Z,15.37
2023-01-05T13:19:48.360Z,15.38
2023-01-05T13:20:56.180Z,15.35
2023-01-05T13:21:57.970Z,15.38
2023-01-05T13:23:00.811Z,15.37
2023-01-05T13:24:03.443Z,15.39
2023-01-05T13:25:09.064Z,15.40
2023-01-05T13:26:17.138Z,15.43
2023-01-05T13:27:18.616Z,15.45
2023-01-05T13:28:21.023Z,15.47
2023-01-05T13:29:33.086Z,15.47
2023-01-05T13:30:37.207Z,15.48
2023-01-05T13:31:47.722Z,15.50
2023-01-05T13:32:55.405Z,15.51
2023-01-05T13:34:15.249Z,15.50
2023-01-05T13:35:25.897Z,15.47
2023-01-05T13:36:27.362Z,15.46
2023-01-05T13:37:35.057Z,15.47
2023-01-05T13:38:55.117Z,15.48
2023-01-05T13:40:09.071Z,15.48
2023-01-05T13:41:14.202Z,15.49
2023-01-05T13:42:18.499Z,15.50
2023-01-05T13:43:38.554Z,15.50
2023-01-05T13:44:47.681Z,15.52
2023-01-05T13:45:49.187Z,15.54
2023-01-05T13:46:50.677Z,15.56
2023-01-05T13:48:13.133Z,15.56
2023-01-05T13:49:17.845Z,15.56
2023-01-05T13:50:39.636Z,15.54
2023-01-05T13:51:47.561Z,15.50
2023-01-05T13:53:07.491Z,15.45
2023-01-05T13:54:19.504Z,15.49
2023-01-05T13:55:25.820Z,15.51
2023-01-05T13:56:28.922Z,15.53
2023-01-05T13:57:35.230Z,15.55
2023-01-05T13:58:42.385Z,15.55
2023-01-05T13:59:55.041Z,15.59
2023-01-05T14:00:57.993Z,15.61
2023-01-05T14:02:00.448Z,15.63
2023-01-05T14:03:07.404Z,15.65